Terminal Aerodrome Forecast
Issued by NWS Tampa Bay Area, FL

Home | Current Version | Previous Version | Text Only | Print | Product List | Glossary On
Versions: 1 2 3 4 5 6 7 8 9 10 11 12 13 14 15 16 17 18 19 20 21
000
FTUS42 KTBW 240900 AAB
TAFSRQ
TAF AMD
KSRQ 240900Z 2409/2506 VRB03KT 5SM BR FEW007
      TEMPO 2409/2411 1SM BR BKN008
     FM241300 08005KT P6SM FEW250
     FM241700 27010KT P6SM FEW035 FEW250
     FM250300 VRB04KT P6SM FEW250=

USA.gov is the U.S. government's official web portal to all federal, state and local government web resources and services.